sensor_id;sensor_type;location;lat;lon;timestamp;pressure;altitude;pressure_sealevel;temperature;humidity
33189;BME280;52601;53.070;10.600;2023-02-04T00:00:23;102372.72;;;3.18;100.00
33189;BME280;52601;53.070;10.600;2023-02-04T00:03:09;102379.56;;;3.13;100.00
33189;BME280;52601;53.070;10.600;2023-02-04T00:05:54;102378.75;;;3.17;100.00
33189;BME280;52601;53.070;10.600;2023-02-04T00:08:40;102386.69;;;3.35;100.00
33189;BME280;52601;53.070;10.600;2023-02-04T00:11:25;102396.16;;;3.31;100.00
33189;BME280;52601;53.070;10.600;2023-02-04T00:14:11;102410.06;;;3.39;100.00
33189;BME280;52601;53.070;10.600;2023-02-04T00:16:56;102411.78;;;3.37;100.00
33189;BME280;52601;53.070;10.600;2023-02-04T00:19:42;102417.84;;;3.44;100.00
33189;BME280;52601;53.070;10.600;2023-02-04T00:22:27;102430.91;;;3.53;100.00
33189;BME280;52601;53.070;10.600;2023-02-04T00:25:13;102439.75;;;3.78;100.00
33189;BME280;52601;53.070;10.600;2023-02-04T00:27:59;102439.69;;;3.70;100.00
33189;BME280;52601;53.070;10.600;2023-02-04T00:30:44;102447.50;;;3.75;100.00
33189;BME280;52601;53.070;10.600;2023-02-04T00:33:31;102459.59;;;3.73;100.00
33189;BME280;52601;53.070;10.600;2023-02-04T00:36:17;102463.03;;;3.70;100.00
33189;BME280;52601;53.070;10.600;2023-02-04T00:39:02;102475.16;;;3.71;100.00
33189;BME280;52601;53.070;10.600;2023-02-04T00:41:48;102476.91;;;3.77;100.00
33189;BME280;52601;53.070;10.600;2023-02-04T00:44:33;102481.16;;;3.67;100.00
33189;BME280;52601;53.070;10.600;2023-02-04T00:47:20;102489.84;;;3.71;100.00
33189;BME280;52601;53.070;10.600;2023-02-04T00:50:06;102504.63;;;3.81;100.00
33189;BME280;52601;53.070;10.600;2023-02-04T00:52:51;102511.56;;;3.85;100.00
33189;BME280;52601;53.070;10.600;2023-02-04T00:55:37;102513.19;;;3.71;100.00
33189;BME280;52601;53.070;10.600;2023-02-04T00:58:22;102520.94;;;3.68;100.00
33189;BME280;52601;53.070;10.600;2023-02-04T01:01:08;102538.28;;;3.76;100.00
33189;BME280;52601;53.070;10.600;2023-02-04T01:03:54;102533.09;;;3.72;100.00
33189;BME280;52601;53.070;10.600;2023-02-04T01:06:39;102536.56;;;3.75;100.00
33189;BME280;52601;53.070;10.600;2023-02-04T01:09:25;102541.03;;;3.93;100.00
33189;BME280;52601;53.070;10.600;2023-02-04T01:12:10;102543.63;;;3.91;100.00
33189;BME280;52601;53.070;10.600;2023-02-04T01:14:56;102550.50;;;3.85;100.00
33189;BME280;52601;53.070;10.600;2023-02-04T01:17:42;102561.91;;;4.08;100.00
33189;BME280;52601;53.070;10.600;2023-02-04T01:20:28;102567.03;;;3.99;100.00
33189;BME280;52601;53.070;10.600;2023-02-04T01:23:14;102579.97;;;3.91;100.00
33189;BME280;52601;53.070;10.600;2023-02-04T01:25:59;102592.06;;;3.92;100.00
33189;BME280;52601;53.070;10.600;2023-02-04T01:28:45;102582.56;;;3.93;100.00
33189;BME280;52601;53.070;10.600;2023-02-04T01:31:30;102591.44;;;4.17;100.00
33189;BME280;52601;53.070;10.600;2023-02-04T01:34:18;102589.50;;;3.97;100.00
33189;BME280;52601;53.070;10.600;2023-02-04T01:37:03;102619.81;;;3.99;100.00
33189;BME280;52601;53.070;10.600;2023-02-04T01:39:49;102609.31;;;3.86;100.00
33189;BME280;52601;53.070;10.600;2023-02-04T01:42:34;102630.63;;;3.61;100.00
33189;BME280;52601;53.070;10.600;2023-02-04T01:45:19;102629.63;;;3.48;100.00
33189;BME280;52601;53.070;10.600;2023-02-04T01:48:06;102644.28;;;3.44;100.00
33189;BME280;52601;53.070;10.600;2023-02-04T01:50:57;102652.13;;;3.47;100.00
33189;BME280;52601;53.070;10.600;2023-02-04T01:53:46;102659.84;;;3.44;100.00
33189;BME280;52601;53.070;10.600;2023-02-04T01:56:31;102658.03;;;3.37;100.00
33189;BME280;52601;53.070;10.600;2023-02-04T01:59:17;102672.53;;;3.22;100.00
33189;BME280;52601;53.070;10.600;2023-02-04T02:02:43;102674.16;;;3.18;100.00
33189;BME280;52601;53.070;10.600;2023-02-04T02:05:34;102679.09;;;2.99;100.00
33189;BME280;52601;53.070;10.600;2023-02-04T02:08:20;102669.56;;;2.96;100.00
33189;BME280;52601;53.070;10.600;2023-02-04T02:11:05;102685.72;;;2.80;100.00
33189;BME280;52601;53.070;10.600;2023-02-04T02:13:51;102682.84;;;2.62;100.00
33189;BME280;52601;53.070;10.600;2023-02-04T02:16:36;102687.38;;;2.77;100.00
33189;BME280;52601;53.070;10.600;2023-02-04T02:19:29;102687.84;;;2.51;100.00
33189;BME280;52601;53.070;10.600;2023-02-04T02:22:40;102705.94;;;2.48;100.00
33189;BME280;52601;53.070;10.600;2023-02-04T02:25:28;102708.25;;;2.35;100.00
33189;BME280;52601;53.070;10.600;2023-02-04T02:28:16;102721.16;;;2.33;100.00
33189;BME280;52601;53.070;10.600;2023-02-04T02:31:02;102716.09;;;2.38;100.00
33189;BME280;52601;53.070;10.600;2023-02-04T02:33:48;102711.69;;;2.34;100.00
33189;BME280;52601;53.070;10.600;2023-02-04T02:36:34;102712.16;;;2.12;100.00
33189;BME280;52601;53.070;10.600;2023-02-04T02:39:19;102726.69;;;2.05;100.00
33189;BME280;52601;53.070;10.600;2023-02-04T02:42:06;102731.19;;;2.15;100.00
33189;BME280;52601;53.070;10.600;2023-02-04T02:44:51;102737.00;;;2.04;100.00
33189;BME280;52601;53.070;10.600;2023-02-04T02:47:38;102746.31;;;1.94;100.00
33189;BME280;52601;53.070;10.600;2023-02-04T02:50:25;102747.88;;;1.86;100.00
33189;BME280;52601;53.070;10.600;2023-02-04T02:53:13;102757.44;;;1.92;100.00
33189;BME280;52601;53.070;10.600;2023-02-04T02:55:59;102756.41;;;1.84;100.00
33189;BME280;52601;53.070;10.600;2023-02-04T02:58:48;102772.00;;;1.87;100.00
33189;BME280;52601;53.070;10.600;2023-02-04T03:01:34;102768.66;;;1.91;100.00
33189;BME280;52601;53.070;10.600;2023-02-04T03:04:20;102758.84;;;1.74;100.00
33189;BME280;52601;53.070;10.600;2023-02-04T03:07:06;102784.72;;;1.76;100.00
33189;BME280;52601;53.070;10.600;2023-02-04T03:09:52;102788.97;;;1.74;100.00
33189;BME280;52601;53.070;10.600;2023-02-04T03:12:38;102799.72;;;1.94;100.00
33189;BME280;52601;53.070;10.600;2023-02-04T03:15:24;102799.56;;;1.85;100.00
33189;BME280;52601;53.070;10.600;2023-02-04T03:18:11;102811.59;;;1.83;100.00
33189;BME280;52601;53.070;10.600;2023-02-04T03:20:57;102821.69;;;1.72;100.00
33189;BME280;52601;53.070;10.600;2023-02-04T03:23:43;102828.97;;;1.90;100.00
33189;BME280;52601;53.070;10.600;2023-02-04T03:26:28;102831.75;;;1.99;100.00
33189;BME280;52601;53.070;10.600;2023-02-04T03:29:14;102843.69;;;1.92;100.00
33189;BME280;52601;53.070;10.600;2023-02-04T03:32:00;102844.56;;;1.93;100.00
33189;BME280;52601;53.070;10.600;2023-02-04T03:34:45;102847.44;;;2.06;100.00
33189;BME280;52601;53.070;10.600;2023-02-04T03:37:31;102861.16;;;2.04;100.00
33189;BME280;52601;53.070;10.600;2023-02-04T03:40:16;102865.56;;;2.08;100.00
33189;BME280;52601;53.070;10.600;2023-02-04T03:43:02;102863.69;;;2.01;100.00
33189;BME280;52601;53.070;10.600;2023-02-04T03:45:47;102877.47;;;2.00;100.00
33189;BME280;52601;53.070;10.600;2023-02-04T03:48:33;102894.75;;;2.01;100.00
33189;BME280;52601;53.070;10.600;2023-02-04T03:51:18;102894.03;;;2.09;100.00
33189;BME280;52601;53.070;10.600;2023-02-04T03:54:04;102906.63;;;2.33;100.00
33189;BME280;52601;53.070;10.600;2023-02-04T03:56:50;102914.66;;;2.45;100.00
33189;BME280;52601;53.070;10.600;2023-02-04T03:59:35;102910.31;;;2.44;100.00
33189;BME280;52601;53.070;10.600;2023-02-04T04:02:20;102917.81;;;2.30;100.00
33189;BME280;52601;53.070;10.600;2023-02-04T04:05:07;102918.66;;;2.31;100.00
33189;BME280;52601;53.070;10.600;2023-02-04T04:07:53;102934.06;;;2.25;100.00
33189;BME280;52601;53.070;10.600;2023-02-04T04:10:38;102938.50;;;2.30;100.00
33189;BME280;52601;53.070;10.600;2023-02-04T04:13:26;102948.22;;;2.40;100.00
33189;BME280;52601;53.070;10.600;2023-02-04T04:16:11;102957.88;;;2.49;100.00
33189;BME280;52601;53.070;10.600;2023-02-04T04:18:57;102956.03;;;2.43;100.00
33189;BME280;52601;53.070;10.600;2023-02-04T04:21:42;102958.72;;;2.48;100.00
33189;BME280;52601;53.070;10.600;2023-02-04T04:24:28;102969.13;;;2.51;100.00
33189;BME280;52601;53.070;10.600;2023-02-04T04:27:13;102990.09;;;2.61;100.00
33189;BME280;52601;53.070;10.600;2023-02-04T04:29:59;102998.13;;;2.75;100.00
33189;BME280;52601;53.070;10.600;2023-02-04T04:32:45;102995.38;;;2.66;100.00
33189;BME280;52601;53.070;10.600;2023-02-04T04:35:31;102982.06;;;2.51;100.00
33189;BME280;52601;53.070;10.600;2023-02-04T04:38:16;102990.13;;;2.64;100.00
33189;BME280;52601;53.070;10.600;2023-02-04T04:41:02;102992.81;;;2.69;100.00
33189;BME280;52601;53.070;10.600;2023-02-04T04:43:47;102987.00;;;2.79;100.00
33189;BME280;52601;53.070;10.600;2023-02-04T04:46:33;103001.84;;;2.86;100.00
33189;BME280;52601;53.070;10.600;2023-02-04T04:49:18;103000.75;;;2.77;100.00
33189;BME280;52601;53.070;10.600;2023-02-04T04:52:04;103009.53;;;2.83;100.00
33189;BME280;52601;53.070;10.600;2023-02-04T04:54:49;103014.72;;;2.83;100.00
33189;BME280;52601;53.070;10.600;2023-02-04T04:57:35;103017.28;;;2.83;100.00
33189;BME280;52601;53.070;10.600;2023-02-04T05:00:21;103030.25;;;2.83;100.00
33189;BME280;52601;53.070;10.600;2023-02-04T05:03:06;103019.47;;;3.05;100.00
33189;BME280;52601;53.070;10.600;2023-02-04T05:05:52;103029.75;;;3.01;100.00
33189;BME280;52601;53.070;10.600;2023-02-04T05:08:37;103033.97;;;2.94;100.00
33189;BME280;52601;53.070;10.600;2023-02-04T05:11:23;103045.69;;;2.79;100.00
33189;BME280;52601;53.070;10.600;2023-02-04T05:14:08;103051.75;;;2.79;100.00
33189;BME280;52601;53.070;10.600;2023-02-04T05:16:53;103043.75;;;2.69;100.00
33189;BME280;52601;53.070;10.600;2023-02-04T05:19:39;103043.75;;;2.69;100.00
33189;BME280;52601;53.070;10.600;2023-02-04T05:22:24;103057.53;;;2.66;100.00
33189;BME280;52601;53.070;10.600;2023-02-04T05:25:10;103041.72;;;2.54;100.00
33189;BME280;52601;53.070;10.600;2023-02-04T05:27:55;103036.53;;;2.54;100.00
33189;BME280;52601;53.070;10.600;2023-02-04T05:30:41;103044.28;;;2.52;100.00
33189;BME280;52601;53.070;10.600;2023-02-04T05:33:26;103051.84;;;2.45;100.00
33189;BME280;52601;53.070;10.600;2023-02-04T05:36:11;103051.31;;;2.59;100.00
33189;BME280;52601;53.070;10.600;2023-02-04T05:38:57;103054.44;;;2.45;100.00
33189;BME280;52601;53.070;10.600;2023-02-04T05:41:43;103071.44;;;2.34;100.00
33189;BME280;52601;53.070;10.600;2023-02-04T05:44:28;103081.03;;;2.38;100.00
33189;BME280;52601;53.070;10.600;2023-02-04T05:47:14;103090.28;;;2.28;100.00
33189;BME280;52601;53.070;10.600;2023-02-04T05:49:59;103106.16;;;2.08;100.00
33189;BME280;52601;53.070;10.600;2023-02-04T05:52:45;103111.91;;;1.96;100.00
33189;BME280;52601;53.070;10.600;2023-02-04T05:55:30;103108.88;;;1.80;100.00
33189;BME280;52601;53.070;10.600;2023-02-04T05:58:16;103117.34;;;1.74;100.00
33189;BME280;52601;53.070;10.600;2023-02-04T06:01:02;103117.91;;;1.62;100.00
33189;BME280;52601;53.070;10.600;2023-02-04T06:03:48;103119.91;;;1.72;100.00
33189;BME280;52601;53.070;10.600;2023-02-04T06:06:34;103135.38;;;1.71;100.00
33189;BME280;52601;53.070;10.600;2023-02-04T06:09:19;103143.03;;;1.68;100.00
33189;BME280;52601;53.070;10.600;2023-02-04T06:12:05;103152.78;;;1.78;100.00
33189;BME280;52601;53.070;10.600;2023-02-04T06:14:51;103151.53;;;1.95;100.00
33189;BME280;52601;53.070;10.600;2023-02-04T06:17:36;103152.59;;;1.70;100.00
33189;BME280;52601;53.070;10.600;2023-02-04T06:20:22;103153.78;;;1.52;100.00
33189;BME280;52601;53.070;10.600;2023-02-04T06:23:07;103162.25;;;1.46;100.00
33189;BME280;52601;53.070;10.600;2023-02-04T06:25:53;103163.72;;;1.38;100.00
33189;BME280;52601;53.070;10.600;2023-02-04T06:28:39;103158.56;;;1.38;100.00
33189;BME280;52601;53.070;10.600;2023-02-04T06:31:24;103164.38;;;1.31;100.00
33189;BME280;52601;53.070;10.600;2023-02-04T06:34:10;103161.63;;;1.25;100.00
33189;BME280;52601;53.070;10.600;2023-02-04T06:36:56;103171.91;;;1.24;100.00
33189;BME280;52601;53.070;10.600;2023-02-04T06:39:42;103181.94;;;1.13;100.00
33189;BME280;52601;53.070;10.600;2023-02-04T06:42:28;103179.94;;;1.05;100.00
33189;BME280;52601;53.070;10.600;2023-02-04T06:45:15;103182.19;;;0.94;100.00
33189;BME280;52601;53.070;10.600;2023-02-04T06:48:00;103197.59;;;0.91;100.00
33189;BME280;52601;53.070;10.600;2023-02-04T06:50:46;103204.44;;;0.89;100.00
33189;BME280;52601;53.070;10.600;2023-02-04T06:53:31;103213.72;;;0.84;100.00
33189;BME280;52601;53.070;10.600;2023-02-04T06:56:17;103217.06;;;1.08;100.00
33189;BME280;52601;53.070;10.600;2023-02-04T06:59:03;103227.13;;;0.99;100.00
33189;BME280;52601;53.070;10.600;2023-02-04T07:01:48;103232.03;;;0.92;100.00
33189;BME280;52601;53.070;10.600;2023-02-04T07:04:33;103236.81;;;1.06;100.00
33189;BME280;52601;53.070;10.600;2023-02-04T07:07:20;103232.22;;;0.98;100.00
33189;BME280;52601;53.070;10.600;2023-02-04T07:10:05;103235.50;;;0.92;100.00
33189;BME280;52601;53.070;10.600;2023-02-04T07:12:51;103235.09;;;0.80;100.00
33189;BME280;52601;53.070;10.600;2023-02-04T07:15:36;103237.84;;;0.84;100.00
33189;BME280;52601;53.070;10.600;2023-02-04T07:18:21;103235.97;;;0.80;100.00
33189;BME280;52601;53.070;10.600;2023-02-04T07:21:07;103242.06;;;0.82;100.00
33189;BME280;52601;53.070;10.600;2023-02-04T07:23:52;103258.53;;;0.86;100.00
33189;BME280;52601;53.070;10.600;2023-02-04T07:26:38;103272.50;;;0.91;100.00
33189;BME280;52601;53.070;10.600;2023-02-04T07:29:23;103269.19;;;0.70;100.00
33189;BME280;52601;53.070;10.600;2023-02-04T07:32:10;103274.47;;;0.73;100.00
33189;BME280;52601;53.070;10.600;2023-02-04T07:34:56;103290.03;;;1.01;100.00
33189;BME280;52601;53.070;10.600;2023-02-04T07:37:41;103285.81;;;1.31;100.00
33189;BME280;52601;53.070;10.600;2023-02-04T07:40:27;103285.72;;;1.55;100.00
33189;BME280;52601;53.070;10.600;2023-02-04T07:43:13;103291.03;;;1.89;100.00
33189;BME280;52601;53.070;10.600;2023-02-04T07:45:58;103295.50;;;2.24;100.00
33189;BME280;52601;53.070;10.600;2023-02-04T07:48:44;103308.44;;;2.57;100.00
33189;BME280;52601;53.070;10.600;2023-02-04T07:51:29;103307.53;;;2.88;100.00
33189;BME280;52601;53.070;10.600;2023-02-04T07:54:15;103312.28;;;3.39;100.00
33189;BME280;52601;53.070;10.600;2023-02-04T07:57:00;103314.84;;;3.38;100.00
33189;BME280;52601;53.070;10.600;2023-02-04T07:59:46;103324.75;;;3.56;100.00
33189;BME280;52601;53.070;10.600;2023-02-04T08:02:31;103324.16;;;3.30;100.00
33189;BME280;52601;53.070;10.600;2023-02-04T08:05:17;103327.53;;;2.93;100.00
33189;BME280;52601;53.070;10.600;2023-02-04T08:08:03;103323.91;;;3.58;100.00
33189;BME280;52601;53.070;10.600;2023-02-04T08:10:48;103325.94;;;3.70;100.00
33189;BME280;52601;53.070;10.600;2023-02-04T08:13:34;103335.94;;;3.55;100.00
33189;BME280;52601;53.070;10.600;2023-02-04T08:16:19;103322.38;;;4.06;100.00
33189;BME280;52601;53.070;10.600;2023-02-04T08:19:05;103329.19;;;4.43;100.00
33189;BME280;52601;53.070;10.600;2023-02-04T08:21:50;103330.28;;;5.59;100.00
33189;BME280;52601;53.070;10.600;2023-02-04T08:24:36;103334.03;;;6.42;99.18
33189;BME280;52601;53.070;10.600;2023-02-04T08:27:21;103323.25;;;8.28;93.11
33189;BME280;52601;53.070;10.600;2023-02-04T08:30:07;103332.09;;;9.07;81.25
33189;BME280;52601;53.070;10.600;2023-02-04T08:32:53;103330.38;;;9.12;77.44
33189;BME280;52601;53.070;10.600;2023-02-04T08:35:38;103328.28;;;10.47;74.36
33189;BME280;52601;53.070;10.600;2023-02-04T08:38:24;103327.66;;;11.31;68.16
33189;BME280;52601;53.070;10.600;2023-02-04T08:41:09;103321.41;;;13.37;63.27
33189;BME280;52601;53.070;10.600;2023-02-04T08:43:55;103343.78;;;14.88;57.57
33189;BME280;52601;53.070;10.600;2023-02-04T08:46:41;103338.09;;;14.67;55.61
33189;BME280;52601;53.070;10.600;2023-02-04T08:49:27;103328.44;;;16.32;52.24
33189;BME280;52601;53.070;10.600;2023-02-04T08:52:12;103329.19;;;17.18;50.52
33189;BME280;52601;53.070;10.600;2023-02-04T08:54:58;103343.13;;;16.42;50.41
33189;BME280;52601;53.070;10.600;2023-02-04T08:57:44;103331.97;;;17.15;49.59
33189;BME280;52601;53.070;10.600;2023-02-04T09:00:29;103340.16;;;15.93;49.95
33189;BME280;52601;53.070;10.600;2023-02-04T09:03:15;103338.47;;;16.21;51.95
33189;BME280;52601;53.070;10.600;2023-02-04T09:06:01;103342.13;;;18.03;47.51
33189;BME280;52601;53.070;10.600;2023-02-04T09:08:47;103336.50;;;16.58;51.19
33189;BME280;52601;53.070;10.600;2023-02-04T09:11:32;103341.16;;;17.58;48.98
33189;BME280;52601;53.070;10.600;2023-02-04T09:14:18;103351.63;;;18.78;46.42
33189;BME280;52601;53.070;10.600;2023-02-04T09:17:03;103360.63;;;18.52;47.12
33189;BME280;52601;53.070;10.600;2023-02-04T09:19:50;103353.22;;;18.37;46.29
33189;BME280;52601;53.070;10.600;2023-02-04T09:22:35;103342.88;;;17.59;46.30
33189;BME280;52601;53.070;10.600;2023-02-04T09:25:22;103354.91;;;18.84;44.91
33189;BME280;52601;53.070;10.600;2023-02-04T09:28:08;103348.75;;;19.26;43.93
33189;BME280;52601;53.070;10.600;2023-02-04T09:30:57;103354.22;;;19.64;43.14
33189;BME280;52601;53.070;10.600;2023-02-04T09:33:43;103381.50;;;18.84;43.90
33189;BME280;52601;53.070;10.600;2023-02-04T09:36:28;103380.34;;;17.99;44.26
33189;BME280;52601;53.070;10.600;2023-02-04T09:39:16;103390.22;;;20.50;42.47
33189;BME280;52601;53.070;10.600;2023-02-04T09:42:02;103390.88;;;20.93;41.47
33189;BME280;52601;53.070;10.600;2023-02-04T09:44:47;103394.81;;;21.21;41.11
33189;BME280;52601;53.070;10.600;2023-02-04T09:47:33;103395.38;;;21.45;39.20
33189;BME280;52601;53.070;10.600;2023-02-04T09:50:23;103390.41;;;21.72;39.99
33189;BME280;52601;53.070;10.600;2023-02-04T09:53:14;103393.22;;;21.87;40.13
33189;BME280;52601;53.070;10.600;2023-02-04T09:56:01;103394.00;;;22.70;37.81
33189;BME280;52601;53.070;10.600;2023-02-04T09:58:47;103390.56;;;22.84;38.11
33189;BME280;52601;53.070;10.600;2023-02-04T10:01:32;103382.59;;;23.73;37.19
33189;BME280;52601;53.070;10.600;2023-02-04T10:04:18;103382.56;;;24.31;36.34
33189;BME280;52601;53.070;10.600;2023-02-04T10:07:09;103388.31;;;22.76;37.68
33189;BME280;52601;53.070;10.600;2023-02-04T10:09:56;103405.16;;;16.03;44.00
33189;BME280;52601;53.070;10.600;2023-02-04T10:12:42;103399.38;;;19.03;44.02
33189;BME280;52601;53.070;10.600;2023-02-04T10:15:27;103382.53;;;20.06;41.72
33189;BME280;52601;53.070;10.600;2023-02-04T10:18:24;103388.88;;;22.17;38.36
33189;BME280;52601;53.070;10.600;2023-02-04T10:21:18;103395.63;;;21.40;37.34
33189;BME280;52601;53.070;10.600;2023-02-04T10:24:11;103394.38;;;20.57;39.33
33189;BME280;52601;53.070;10.600;2023-02-04T10:27:09;103402.09;;;17.33;45.53
33189;BME280;52601;53.070;10.600;2023-02-04T10:29:56;103404.19;;;21.47;40.26
33189;BME280;52601;53.070;10.600;2023-02-04T10:32:42;103405.72;;;21.34;39.61
33189;BME280;52601;53.070;10.600;2023-02-04T10:35:29;103407.13;;;20.12;41.30
33189;BME280;52601;53.070;10.600;2023-02-04T10:38:15;103413.59;;;15.51;46.53
33189;BME280;52601;53.070;10.600;2023-02-04T10:41:02;103409.47;;;16.07;48.82
33189;BME280;52601;53.070;10.600;2023-02-04T10:43:54;103417.25;;;15.10;50.83
33189;BME280;52601;53.070;10.600;2023-02-04T10:46:40;103411.38;;;14.58;50.93
33189;BME280;52601;53.070;10.600;2023-02-04T10:49:25;103416.72;;;12.45;55.43
33189;BME280;52601;53.070;10.600;2023-02-04T10:52:14;103423.66;;;10.29;60.90
33189;BME280;52601;53.070;10.600;2023-02-04T10:55:02;103423.75;;;9.66;66.01
33189;BME280;52601;53.070;10.600;2023-02-04T10:57:50;103426.38;;;9.20;65.81
33189;BME280;52601;53.070;10.600;2023-02-04T11:00:36;103436.69;;;8.67;67.37
33189;BME280;52601;53.070;10.600;2023-02-04T11:03:26;103442.06;;;9.29;69.43
33189;BME280;52601;53.070;10.600;2023-02-04T11:06:19;103427.78;;;10.87;64.18
33189;BME280;52601;53.070;10.600;2023-02-04T11:09:06;103426.31;;;11.68;59.58
33189;BME280;52601;53.070;10.600;2023-02-04T11:11:51;103442.09;;;9.67;62.01
33189;BME280;52601;53.070;10.600;2023-02-04T11:14:37;103454.31;;;9.83;63.83
33189;BME280;52601;53.070;10.600;2023-02-04T11:17:33;103457.72;;;9.07;65.25
33189;BME280;52601;53.070;10.600;2023-02-04T11:20:31;103447.19;;;8.80;66.42
33189;BME280;52601;53.070;10.600;2023-02-04T11:26:19;103440.69;;;13.48;58.35
33189;BME280;52601;53.070;10.600;2023-02-04T11:32:33;103431.09;;;19.07;41.82
33189;BME280;52601;53.070;10.600;2023-02-04T11:35:26;103426.56;;;20.53;38.27
33189;BME280;52601;53.070;10.600;2023-02-04T11:38:25;103428.63;;;19.88;38.63
33189;BME280;52601;53.070;10.600;2023-02-04T11:41:24;103423.84;;;17.70;42.22
33189;BME280;52601;53.070;10.600;2023-02-04T11:44:12;103430.28;;;17.89;42.69
33189;BME280;52601;53.070;10.600;2023-02-04T11:47:06;103434.66;;;16.54;44.48
33189;BME280;52601;53.070;10.600;2023-02-04T11:49:55;103435.94;;;16.07;44.07
33189;BME280;52601;53.070;10.600;2023-02-04T11:52:42;103435.97;;;15.73;47.15
33189;BME280;52601;53.070;10.600;2023-02-04T11:55:29;103433.16;;;17.57;43.95
33189;BME280;52601;53.070;10.600;2023-02-04T11:58:17;103434.88;;;18.80;42.00
33189;BME280;52601;53.070;10.600;2023-02-04T12:01:18;103438.78;;;16.31;44.63
33189;BME280;52601;53.070;10.600;2023-02-04T12:04:18;103439.19;;;16.79;43.64
33189;BME280;52601;53.070;10.600;2023-02-04T12:07:05;103452.53;;;18.10;42.88
33189;BME280;52601;53.070;10.600;2023-02-04T12:09:51;103441.47;;;16.91;44.35
33189;BME280;52601;53.070;10.600;2023-02-04T12:12:47;103452.28;;;15.57;45.68
33189;BME280;52601;53.070;10.600;2023-02-04T12:15:34;103433.00;;;16.17;46.05
33189;BME280;52601;53.070;10.600;2023-02-04T12:18:20;103436.41;;;16.82;43.82
33189;BME280;52601;53.070;10.600;2023-02-04T12:21:06;103433.31;;;18.51;41.94
33189;BME280;52601;53.070;10.600;2023-02-04T12:23:52;103435.53;;;18.39;40.19
33189;BME280;52601;53.070;10.600;2023-02-04T12:26:37;103440.69;;;17.94;40.87
33189;BME280;52601;53.070;10.600;2023-02-04T12:29:23;103444.84;;;18.73;40.44
33189;BME280;52601;53.070;10.600;2023-02-04T12:32:08;103439.81;;;20.54;38.24
33189;BME280;52601;53.070;10.600;2023-02-04T12:34:54;103443.31;;;20.94;36.38
33189;BME280;52601;53.070;10.600;2023-02-04T12:37:39;103444.97;;;20.78;37.19
33189;BME280;52601;53.070;10.600;2023-02-04T12:40:25;103446.38;;;21.22;36.84
33189;BME280;52601;53.070;10.600;2023-02-04T12:43:11;103445.28;;;22.63;35.84
33189;BME280;52601;53.070;10.600;2023-02-04T12:45:57;103448.91;;;22.77;36.73
33189;BME280;52601;53.070;10.600;2023-02-04T12:48:42;103463.72;;;21.13;38.71
33189;BME280;52601;53.070;10.600;2023-02-04T12:51:28;103452.81;;;20.99;39.07
33189;BME280;52601;53.070;10.600;2023-02-04T12:54:13;103453.00;;;20.39;40.48
33189;BME280;52601;53.070;10.600;2023-02-04T12:56:59;103454.25;;;22.12;38.18
33189;BME280;52601;53.070;10.600;2023-02-04T12:59:47;103465.50;;;23.76;35.27
33189;BME280;52601;53.070;10.600;2023-02-04T13:02:35;103466.66;;;24.58;33.51
33189;BME280;52601;53.070;10.600;2023-02-04T13:05:21;103454.75;;;22.36;34.94
33189;BME280;52601;53.070;10.600;2023-02-04T13:08:06;103473.50;;;19.97;38.77
33189;BME280;52601;53.070;10.600;2023-02-04T13:10:52;103470.59;;;22.06;37.27
33189;BME280;52601;53.070;10.600;2023-02-04T13:13:38;103460.09;;;22.36;35.36
33189;BME280;52601;53.070;10.600;2023-02-04T13:16:23;103474.19;;;21.71;35.64
33189;BME280;52601;53.070;10.600;2023-02-04T13:19:10;103475.75;;;22.91;35.51
33189;BME280;52601;53.070;10.600;2023-02-04T13:21:55;103473.00;;;23.55;34.53
33189;BME280;52601;53.070;10.600;2023-02-04T13:24:41;103479.41;;;22.90;34.52
33189;BME280;52601;53.070;10.600;2023-02-04T13:27:27;103484.50;;;18.79;39.07
33189;BME280;52601;53.070;10.600;2023-02-04T13:30:14;103483.19;;;16.22;44.00
33189;BME280;52601;53.070;10.600;2023-02-04T13:33:00;103486.66;;;15.18;46.15
33189;BME280;52601;53.070;10.600;2023-02-04T13:35:46;103488.03;;;16.06;45.22
